Time,TemperatureF,DewpointF,PressureIn,WindDirection,WindDirectionDegrees,WindSpeedMPH,WindSpeedGustMPH,Humidity,HourlyPrecipIn,Conditions,Clouds,dailyrainin,SolarRadiationWatts/m^2,SoftwareType,DateUTC
2013-06-19 00:01:00,65.0,43.0,-100.00,South,191,2.0,6.0,44,0.00,,,0.00,0.000000,,2013-06-19 07:01:00,
2013-06-19 00:11:00,65.0,43.0,-100.00,South,191,2.0,6.0,44,0.00,,,0.00,0.000000,,2013-06-19 07:11:00,
2013-06-19 00:33:00,64.0,42.0,-100.00,SSW,206,2.0,5.0,45,0.00,,,0.00,0.000000,,2013-06-19 07:33:00,
2013-06-19 00:43:00,64.0,42.0,-100.00,SSW,206,2.0,5.0,45,0.00,,,0.00,0.000000,,2013-06-19 07:43:00,
2013-06-19 00:53:00,64.0,42.0,-100.00,SSW,206,2.0,5.0,45,0.00,,,0.00,0.000000,,2013-06-19 07:53:00,
2013-06-19 01:01:00,64.0,42.0,-100.00,SSW,206,2.0,5.0,45,0.00,,,0.00,0.000000,,2013-06-19 08:01:00,
2013-06-19 01:11:00,64.0,42.0,-100.00,SSW,206,2.0,5.0,45,0.00,,,0.00,0.000000,,2013-06-19 08:11:00,
2013-06-19 01:34:00,60.0,42.0,-100.00,SW,227,1.0,5.0,52,0.00,,,0.00,0.000000,,2013-06-19 08:34:00,
2013-06-19 01:43:00,60.0,42.0,-100.00,SW,227,1.0,5.0,52,0.00,,,0.00,0.000000,,2013-06-19 08:43:00,
2013-06-19 01:53:00,60.0,42.0,-100.00,SW,227,1.0,5.0,52,0.00,,,0.00,0.000000,,2013-06-19 08:53:00,
2013-06-19 02:02:00,60.0,42.0,-100.00,SW,227,1.0,5.0,52,0.00,,,0.00,0.000000,,2013-06-19 09:02:00,
2013-06-19 02:11:00,60.0,42.0,-100.00,SW,227,1.0,5.0,52,0.00,,,0.00,0.000000,,2013-06-19 09:11:00,
2013-06-19 02:44:00,56.0,43.0,-100.00,NE,38,2.0,4.0,62,0.00,,,0.00,0.000000,,2013-06-19 09:44:00,
2013-06-19 02:53:00,56.0,43.0,-100.00,NE,38,2.0,4.0,62,0.00,,,0.00,0.000000,,2013-06-19 09:53:00,
2013-06-19 03:01:00,56.0,43.0,-100.00,NE,38,2.0,4.0,62,0.00,,,0.00,0.000000,,2013-06-19 10:01:00,
2013-06-19 03:11:00,56.0,43.0,-100.00,NE,38,2.0,4.0,62,0.00,,,0.00,0.000000,,2013-06-19 10:11:00,
2013-06-19 03:33:00,54.0,43.0,-100.00,NNE,33,3.0,4.0,65,0.00,,,0.00,0.000000,,2013-06-19 10:33:00,
2013-06-19 03:43:00,54.0,43.0,-100.00,NNE,33,3.0,4.0,65,0.00,,,0.00,0.000000,,2013-06-19 10:43:00,
2013-06-19 03:53:00,54.0,43.0,-100.00,NNE,33,3.0,4.0,65,0.00,,,0.00,0.000000,,2013-06-19 10:53:00,
2013-06-19 04:02:00,54.0,43.0,-100.00,NNE,33,3.0,4.0,65,0.00,,,0.00,0.000000,,2013-06-19 11:02:00,
2013-06-19 04:11:00,54.0,43.0,-100.00,NNE,33,3.0,4.0,65,0.00,,,0.00,0.000000,,2013-06-19 11:11:00,
2013-06-19 04:33:00,52.0,41.0,-100.00,NE,49,1.0,7.0,67,0.00,,,0.00,0.000000,,2013-06-19 11:33:00,
2013-06-19 04:43:00,52.0,41.0,-100.00,NE,49,1.0,7.0,67,0.00,,,0.00,0.000000,,2013-06-19 11:43:00,
2013-06-19 04:54:00,52.0,41.0,-100.00,NE,49,1.0,7.0,67,0.00,,,0.00,0.000000,,2013-06-19 11:54:00,
2013-06-19 05:01:00,52.0,41.0,-100.00,NE,49,1.0,7.0,67,0.00,,,0.00,0.000000,,2013-06-19 12:01:00,
2013-06-19 05:11:00,52.0,41.0,-100.00,NE,49,1.0,7.0,67,0.00,,,0.00,0.000000,,2013-06-19 12:11:00,
2013-06-19 05:34:00,49.0,41.0,-100.00,NNE,29,2.0,4.0,73,0.00,,,0.00,0.000000,,2013-06-19 12:34:00,
2013-06-19 05:44:00,49.0,41.0,-100.00,NNE,29,2.0,4.0,73,0.00,,,0.00,0.000000,,2013-06-19 12:44:00,
2013-06-19 05:53:00,49.0,41.0,-100.00,NNE,29,2.0,4.0,73,0.00,,,0.00,0.000000,,2013-06-19 12:53:00,
2013-06-19 06:02:00,49.0,41.0,-100.00,NNE,29,2.0,4.0,73,0.00,,,0.00,0.000000,,2013-06-19 13:02:00,
2013-06-19 06:11:00,49.0,41.0,-100.00,NNE,29,2.0,4.0,73,0.00,,,0.00,0.000000,,2013-06-19 13:11:00,
2013-06-19 06:43:00,48.0,40.0,-100.00,NE,40,3.0,4.0,75,0.00,,,0.00,6.000000,,2013-06-19 13:43:00,
2013-06-19 06:54:00,48.0,40.0,-100.00,NE,40,3.0,4.0,75,0.00,,,0.00,6.000000,,2013-06-19 13:54:00,
2013-06-19 07:02:00,48.0,40.0,-100.00,NE,40,3.0,4.0,75,0.00,,,0.00,6.000000,,2013-06-19 14:02:00,
2013-06-19 07:11:00,48.0,40.0,-100.00,NE,40,3.0,4.0,75,0.00,,,0.00,6.000000,,2013-06-19 14:11:00,
2013-06-19 07:34:00,59.0,46.0,-100.00,NE,51,1.0,3.0,61,0.00,,,0.00,125.000000,,2013-06-19 14:34:00,
2013-06-19 07:44:00,59.0,46.0,-100.00,NE,51,1.0,3.0,61,0.00,,,0.00,125.000000,,2013-06-19 14:44:00,
2013-06-19 07:53:00,59.0,46.0,-100.00,NE,51,1.0,3.0,61,0.00,,,0.00,125.000000,,2013-06-19 14:53:00,
2013-06-19 08:01:00,59.0,46.0,-100.00,NE,51,1.0,3.0,61,0.00,,,0.00,125.000000,,2013-06-19 15:01:00,
2013-06-19 08:11:00,59.0,46.0,-100.00,NE,51,1.0,3.0,61,0.00,,,0.00,125.000000,,2013-06-19 15:11:00,
2013-06-19 08:43:00,61.0,43.0,-100.00,SSW,210,6.0,9.0,52,0.00,,,0.00,321.000000,,2013-06-19 15:43:00,
2013-06-19 08:53:00,61.0,43.0,-100.00,SSW,210,6.0,9.0,52,0.00,,,0.00,321.000000,,2013-06-19 15:53:00,
2013-06-19 09:01:00,61.0,43.0,-100.00,SSW,210,6.0,9.0,52,0.00,,,0.00,321.000000,,2013-06-19 16:01:00,
2013-06-19 09:11:00,61.0,43.0,-100.00,SSW,210,6.0,9.0,52,0.00,,,0.00,321.000000,,2013-06-19 16:11:00,
2013-06-19 09:43:00,62.0,43.0,-100.00,South,181,9.0,15.0,49,0.00,,,0.00,521.000000,,2013-06-19 16:43:00,
2013-06-19 09:52:00,62.0,43.0,-100.00,South,181,9.0,15.0,49,0.00,,,0.00,521.000000,,2013-06-19 16:52:00,
2013-06-19 10:02:00,62.0,43.0,-100.00,South,181,9.0,15.0,49,0.00,,,0.00,521.000000,,2013-06-19 17:02:00,
2013-06-19 10:11:00,62.0,43.0,-100.00,South,181,9.0,15.0,49,0.00,,,0.00,521.000000,,2013-06-19 17:11:00,
2013-06-19 10:43:00,65.0,44.0,-100.00,SW,215,6.0,14.0,47,0.00,,,0.00,703.000000,,2013-06-19 17:43:00,
2013-06-19 10:53:00,65.0,44.0,-100.00,SW,215,6.0,14.0,47,0.00,,,0.00,703.000000,,2013-06-19 17:53:00,
2013-06-19 11:01:00,65.0,44.0,-100.00,SW,215,6.0,14.0,47,0.00,,,0.00,703.000000,,2013-06-19 18:01:00,
2013-06-19 11:11:00,65.0,44.0,-100.00,SW,215,6.0,14.0,47,0.00,,,0.00,703.000000,,2013-06-19 18:11:00,
2013-06-19 11:44:00,68.0,44.0,-100.00,WSW,249,7.0,13.0,42,0.00,,,0.00,852.000000,,2013-06-19 18:44:00,
2013-06-19 11:53:00,68.0,44.0,-100.00,WSW,249,7.0,13.0,42,0.00,,,0.00,852.000000,,2013-06-19 18:53:00,
2013-06-19 12:01:00,68.0,44.0,-100.00,WSW,249,7.0,13.0,42,0.00,,,0.00,852.000000,,2013-06-19 19:01:00,
2013-06-19 12:11:00,68.0,44.0,-100.00,WSW,249,7.0,13.0,42,0.00,,,0.00,852.000000,,2013-06-19 19:11:00,
2013-06-19 12:32:00,70.0,44.0,-100.00,West,259,6.0,14.0,39,0.00,,,0.00,945.000000,,2013-06-19 19:32:00,
2013-06-19 12:43:00,70.0,44.0,-100.00,West,259,6.0,14.0,39,0.00,,,0.00,945.000000,,2013-06-19 19:43:00,
2013-06-19 12:53:00,70.0,44.0,-100.00,West,259,6.0,14.0,39,0.00,,,0.00,945.000000,,2013-06-19 19:53:00,
2013-06-19 13:02:00,70.0,44.0,-100.00,West,259,6.0,14.0,39,0.00,,,0.00,945.000000,,2013-06-19 20:02:00,
2013-06-19 13:11:00,70.0,44.0,-100.00,West,259,6.0,14.0,39,0.00,,,0.00,945.000000,,2013-06-19 20:11:00,
2013-06-19 13:33:00,72.0,43.0,-100.00,SW,236,6.0,12.0,35,0.00,,,0.00,978.000000,,2013-06-19 20:33:00,
2013-06-19 13:43:00,72.0,43.0,-100.00,SW,236,6.0,12.0,35,0.00,,,0.00,978.000000,,2013-06-19 20:43:00,
2013-06-19 13:52:00,72.0,43.0,-100.00,SW,236,6.0,12.0,35,0.00,,,0.00,978.000000,,2013-06-19 20:52:00,
2013-06-19 14:02:00,72.0,43.0,-100.00,SW,236,6.0,12.0,35,0.00,,,0.00,978.000000,,2013-06-19 21:02:00,
2013-06-19 14:11:00,72.0,43.0,-100.00,SW,236,6.0,12.0,35,0.00,,,0.00,978.000000,,2013-06-19 21:11:00,
2013-06-19 14:44:00,75.0,43.0,-100.00,West,267,6.0,11.0,32,0.00,,,0.00,962.000000,,2013-06-19 21:44:00,
2013-06-19 14:52:00,75.0,43.0,-100.00,West,267,6.0,11.0,32,0.00,,,0.00,962.000000,,2013-06-19 21:52:00,
2013-06-19 15:01:00,75.0,43.0,-100.00,West,267,6.0,11.0,32,0.00,,,0.00,962.000000,,2013-06-19 22:01:00,
2013-06-19 15:11:00,75.0,43.0,-100.00,West,267,6.0,11.0,32,0.00,,,0.00,962.000000,,2013-06-19 22:11:00,
2013-06-19 15:43:00,77.0,43.0,-100.00,WSW,244,6.0,11.0,30,0.00,,,0.00,888.000000,,2013-06-19 22:43:00,
2013-06-19 15:53:00,77.0,43.0,-100.00,WSW,244,6.0,11.0,30,0.00,,,0.00,888.000000,,2013-06-19 22:53:00,
2013-06-19 16:02:00,77.0,43.0,-100.00,WSW,244,6.0,11.0,30,0.00,,,0.00,888.000000,,2013-06-19 23:02:00,
2013-06-19 16:12:00,77.0,43.0,-100.00,WSW,244,6.0,11.0,30,0.00,,,0.00,888.000000,,2013-06-19 23:12:00,
2013-06-19 16:43:00,77.0,42.0,-100.00,WSW,248,6.0,12.0,29,0.00,,,0.00,755.000000,,2013-06-19 23:43:00,
2013-06-19 16:52:00,77.0,42.0,-100.00,WSW,248,6.0,12.0,29,0.00,,,0.00,755.000000,,2013-06-19 23:52:00,
2013-06-19 17:01:00,77.0,42.0,-100.00,WSW,248,6.0,12.0,29,0.00,,,0.00,755.000000,,2013-06-20 00:01:00,
2013-06-19 17:11:00,77.0,42.0,-100.00,WSW,248,6.0,12.0,29,0.00,,,0.00,755.000000,,2013-06-20 00:11:00,
2013-06-19 18:34:00,77.0,46.0,-100.00,West,279,4.0,13.0,33,-99.99,,,0.00,377.000000,,2013-06-20 01:34:00,
2013-06-19 18:44:00,77.0,46.0,-100.00,West,279,4.0,13.0,33,-99.99,,,0.00,377.000000,,2013-06-20 01:44:00,
2013-06-19 18:52:00,77.0,46.0,-100.00,West,279,4.0,13.0,33,-99.99,,,0.00,377.000000,,2013-06-20 01:52:00,
2013-06-19 19:02:00,77.0,46.0,-100.00,West,279,4.0,13.0,33,-99.99,,,0.00,377.000000,,2013-06-20 02:02:00,
2013-06-19 19:11:00,77.0,46.0,-100.00,West,279,4.0,13.0,33,-99.99,,,0.00,377.000000,,2013-06-20 02:11:00,
2013-06-19 19:34:00,73.0,41.0,-100.00,WSW,255,6.0,13.0,32,0.00,,,0.00,177.000000,,2013-06-20 02:34:00,
2013-06-19 19:43:00,73.0,41.0,-100.00,WSW,255,6.0,13.0,32,0.00,,,0.00,177.000000,,2013-06-20 02:43:00,
2013-06-19 19:52:00,73.0,41.0,-100.00,WSW,255,6.0,13.0,32,0.00,,,0.00,177.000000,,2013-06-20 02:52:00,
2013-06-19 20:02:00,73.0,41.0,-100.00,WSW,255,6.0,13.0,32,0.00,,,0.00,177.000000,,2013-06-20 03:02:00,
2013-06-19 20:11:00,73.0,41.0,-100.00,WSW,255,6.0,13.0,32,0.00,,,0.00,177.000000,,2013-06-20 03:11:00,
2013-06-19 20:33:00,69.0,41.0,-100.00,SW,236,2.0,10.0,36,0.00,,,0.00,22.000000,,2013-06-20 03:33:00,
2013-06-19 20:43:00,69.0,41.0,-100.00,SW,236,2.0,10.0,36,0.00,,,0.00,22.000000,,2013-06-20 03:43:00,
2013-06-19 20:54:00,69.0,41.0,-100.00,SW,236,2.0,10.0,36,0.00,,,0.00,22.000000,,2013-06-20 03:54:00,
2013-06-19 21:01:00,69.0,41.0,-100.00,SW,236,2.0,10.0,36,0.00,,,0.00,22.000000,,2013-06-20 04:01:00,
2013-06-19 21:11:00,69.0,41.0,-100.00,SW,236,2.0,10.0,36,0.00,,,0.00,22.000000,,2013-06-20 04:11:00,
2013-06-19 21:34:00,66.0,42.0,-100.00,NE,36,2.0,4.0,41,0.00,,,0.00,1.000000,,2013-06-20 04:34:00,
2013-06-19 21:43:00,66.0,42.0,-100.00,NE,36,2.0,4.0,41,0.00,,,0.00,1.000000,,2013-06-20 04:43:00,
2013-06-19 21:54:00,66.0,42.0,-100.00,NE,36,2.0,4.0,41,0.00,,,0.00,1.000000,,2013-06-20 04:54:00,
2013-06-19 22:01:00,66.0,42.0,-100.00,NE,36,2.0,4.0,41,0.00,,,0.00,1.000000,,2013-06-20 05:01:00,
2013-06-19 22:12:00,66.0,42.0,-100.00,NE,36,2.0,4.0,41,0.00,,,0.00,1.000000,,2013-06-20 05:12:00,
2013-06-19 22:33:00,62.0,41.0,-100.00,ENE,60,5.0,7.0,46,0.00,,,0.00,0.000000,,2013-06-20 05:33:00,
2013-06-19 22:44:00,62.0,41.0,-100.00,ENE,60,5.0,7.0,46,0.00,,,0.00,0.000000,,2013-06-20 05:44:00,
2013-06-19 22:53:00,62.0,41.0,-100.00,ENE,60,5.0,7.0,46,0.00,,,0.00,0.000000,,2013-06-20 05:53:00,
2013-06-19 23:01:00,62.0,41.0,-100.00,ENE,60,5.0,7.0,46,0.00,,,0.00,0.000000,,2013-06-20 06:01:00,
2013-06-19 23:11:00,62.0,41.0,-100.00,ENE,60,5.0,7.0,46,0.00,,,0.00,0.000000,,2013-06-20 06:11:00,
2013-06-19 23:43:00,60.0,40.0,-100.00,NE,45,4.0,7.0,48,0.00,,,0.00,0.000000,,2013-06-20 06:43:00,
2013-06-19 23:53:00,60.0,40.0,-100.00,NE,45,4.0,7.0,48,0.00,,,0.00,0.000000,,2013-06-20 06:53:00,